createdAt,value
2023-07-06T00:00:00.724Z,60.81
2023-07-06T00:02:27.651Z,60.54
2023-07-06T00:04:54.258Z,60.40
2023-07-06T00:07:24.051Z,59.38
2023-07-06T00:09:51.661Z,58.48
2023-07-06T00:12:19.958Z,58.32
2023-07-06T00:14:46.554Z,59.45
2023-07-06T00:17:15.230Z,59.17
2023-07-06T00:19:42.690Z,58.92
2023-07-06T00:22:10.874Z,58.85
2023-07-06T00:24:37.994Z,58.51
2023-07-06T00:27:04.697Z,59.68
2023-07-06T00:29:36.008Z,58.75
2023-07-06T00:32:26.042Z,58.18
2023-07-06T00:34:52.571Z,57.90
2023-07-06T00:37:21.310Z,57.20
2023-07-06T00:39:47.911Z,56.87
2023-07-06T00:42:19.386Z,56.86
2023-07-06T00:44:53.474Z,56.80
2023-07-06T00:47:34.981Z,57.70
2023-07-06T00:50:08.958Z,58.16
2023-07-06T00:52:40.950Z,57.76
2023-07-06T00:55:09.028Z,59.72
2023-07-06T00:57:36.272Z,59.19
2023-07-06T01:00:05.654Z,59.16
2023-07-06T01:02:32.288Z,59.29
2023-07-06T01:04:59.356Z,59.20
2023-07-06T01:07:27.608Z,58.34
2023-07-06T01:09:54.443Z,58.34
2023-07-06T01:12:22.098Z,58.61
2023-07-06T01:14:49.761Z,58.35
2023-07-06T01:17:54.346Z,57.88
2023-07-06T01:20:46.089Z,59.85
2023-07-06T01:23:21.702Z,58.53
2023-07-06T01:26:19.283Z,60.31
2023-07-06T01:29:23.459Z,58.79
2023-07-06T01:32:00.113Z,59.85
2023-07-06T01:34:48.754Z,59.51
2023-07-06T01:37:32.310Z,58.08
2023-07-06T01:39:59.165Z,57.89
2023-07-06T01:42:28.079Z,60.45
2023-07-06T01:44:57.998Z,59.98
2023-07-06T01:47:25.805Z,59.11
2023-07-06T01:49:52.830Z,59.30
2023-07-06T01:52:27.563Z,59.00
2023-07-06T01:55:27.295Z,58.02
2023-07-06T01:58:02.371Z,59.83
2023-07-06T02:00:31.373Z,60.12
2023-07-06T02:02:59.418Z,59.60
2023-07-06T02:05:27.061Z,60.09
2023-07-06T02:07:53.677Z,60.01
2023-07-06T02:10:23.200Z,60.95
2023-07-06T02:12:50.221Z,60.15
2023-07-06T02:15:19.477Z,60.31
2023-07-06T02:17:46.966Z,60.01
2023-07-06T02:20:16.246Z,59.01
2023-07-06T02:22:44.141Z,58.76
2023-07-06T02:25:10.785Z,58.48
2023-07-06T02:27:38.881Z,58.41
2023-07-06T02:30:07.060Z,58.32
2023-07-06T02:32:34.701Z,58.56
2023-07-06T02:35:03.823Z,58.54
2023-07-06T02:37:32.112Z,57.94
2023-07-06T02:39:59.827Z,59.49
2023-07-06T02:42:27.411Z,57.94
2023-07-06T02:44:55.004Z,58.17
2023-07-06T02:47:23.360Z,57.87
2023-07-06T02:49:50.063Z,58.18
2023-07-06T02:52:16.860Z,58.16
2023-07-06T02:54:43.569Z,57.63
2023-07-06T02:57:10.130Z,57.25
2023-07-06T02:59:36.711Z,57.56
2023-07-06T03:02:04.779Z,57.45
2023-07-06T03:04:33.116Z,56.73
2023-07-06T03:06:59.997Z,58.30
2023-07-06T03:09:27.596Z,58.98
2023-07-06T03:11:54.397Z,58.56
2023-07-06T03:14:26.589Z,59.22
2023-07-06T03:16:55.016Z,57.95
2023-07-06T03:19:22.615Z,57.27
2023-07-06T03:21:49.447Z,56.64
2023-07-06T03:24:16.954Z,57.15
2023-07-06T03:26:44.832Z,59.22
2023-07-06T03:29:14.981Z,58.40
2023-07-06T03:31:42.258Z,58.83
2023-07-06T03:34:09.907Z,58.42
2023-07-06T03:36:40.161Z,58.76
2023-07-06T03:39:07.820Z,59.01
2023-07-06T03:41:35.228Z,58.93
2023-07-06T03:44:01.919Z,59.09
2023-07-06T03:46:35.149Z,59.59
2023-07-06T03:49:04.524Z,58.99
2023-07-06T03:51:32.172Z,58.27
2023-07-06T03:53:58.880Z,58.83
2023-07-06T03:56:28.674Z,58.17
2023-07-06T03:58:58.967Z,58.88
2023-07-06T04:01:26.670Z,58.79
2023-07-06T04:03:53.858Z,58.38
2023-07-06T04:06:20.632Z,59.36
2023-07-06T04:08:47.766Z,59.01
2023-07-06T04:11:14.418Z,58.03
2023-07-06T04:13:41.785Z,58.03
2023-07-06T04:16:15.489Z,57.43
2023-07-06T04:18:42.136Z,56.29
2023-07-06T04:21:08.748Z,58.50
2023-07-06T04:23:36.822Z,59.54
2023-07-06T04:26:03.825Z,60.77
2023-07-06T04:28:31.919Z,60.36
2023-07-06T04:30:58.457Z,61.66
2023-07-06T04:33:25.047Z,61.89
2023-07-06T04:35:55.957Z,61.31
2023-07-06T04:38:23.949Z,59.55
2023-07-06T04:40:52.650Z,59.60
2023-07-06T04:43:19.608Z,59.02
2023-07-06T04:45:46.642Z,59.33
2023-07-06T04:48:13.375Z,60.59
2023-07-06T04:50:40.188Z,59.72
2023-07-06T04:53:08.890Z,59.56
2023-07-06T04:55:36.509Z,59.03
2023-07-06T04:58:06.902Z,60.14
2023-07-06T05:00:35.874Z,59.45
2023-07-06T05:03:08.280Z,58.45
2023-07-06T05:05:41.682Z,59.99
2023-07-06T05:08:10.116Z,60.93
2023-07-06T05:10:36.871Z,59.68
2023-07-06T05:13:04.625Z,60.22
2023-07-06T05:15:31.287Z,60.37
2023-07-06T05:17:58.003Z,58.75
2023-07-06T05:20:25.502Z,58.99
2023-07-06T05:22:53.688Z,57.57
2023-07-06T05:25:20.663Z,58.27
2023-07-06T05:27:48.294Z,57.45
2023-07-06T05:30:15.551Z,57.54
2023-07-06T05:32:43.108Z,57.93
2023-07-06T05:35:10.743Z,58.61
2023-07-06T05:37:38.053Z,57.57
2023-07-06T05:40:07.400Z,59.63
2023-07-06T05:42:34.318Z,58.59
2023-07-06T05:45:01.029Z,58.24
2023-07-06T05:47:30.813Z,57.21
2023-07-06T05:49:57.396Z,57.19
2023-07-06T05:52:24.064Z,56.19
2023-07-06T05:54:50.721Z,56.23
2023-07-06T05:57:21.105Z,56.99
2023-07-06T05:59:49.236Z,55.34
2023-07-06T06:02:21.985Z,55.84
2023-07-06T06:04:49.957Z,55.87
2023-07-06T06:07:16.561Z,56.46
2023-07-06T06:09:43.875Z,55.63
2023-07-06T06:12:12.294Z,56.78
2023-07-06T06:14:39.026Z,56.43
2023-07-06T06:17:06.232Z,57.72
2023-07-06T06:19:38.573Z,56.28
2023-07-06T06:22:10.235Z,56.30
2023-07-06T06:24:36.860Z,54.45
2023-07-06T06:27:04.769Z,54.15
2023-07-06T06:29:33.518Z,53.89
2023-07-06T06:32:01.224Z,53.64
2023-07-06T06:34:27.950Z,53.92
2023-07-06T06:36:55.251Z,54.04
2023-07-06T06:39:21.828Z,53.74
2023-07-06T06:41:48.660Z,54.11
2023-07-06T06:44:15.592Z,54.68
2023-07-06T06:46:42.453Z,54.17
2023-07-06T06:49:09.208Z,52.83
2023-07-06T06:51:35.929Z,52.22
2023-07-06T06:54:02.580Z,52.32
2023-07-06T06:56:29.166Z,52.96
2023-07-06T06:58:55.805Z,52.66
2023-07-06T07:01:22.482Z,52.21
2023-07-06T07:03:49.648Z,51.98
2023-07-06T07:06:17.382Z,50.96
2023-07-06T07:08:51.439Z,50.75
2023-07-06T07:11:24.310Z,49.72
2023-07-06T07:13:53.338Z,49.46
2023-07-06T07:16:21.301Z,49.34
2023-07-06T07:18:49.289Z,51.39
2023-07-06T07:21:17.107Z,50.13
2023-07-06T07:23:45.615Z,50.43
2023-07-06T07:26:14.545Z,51.13
2023-07-06T07:28:41.842Z,50.44
2023-07-06T07:31:12.374Z,48.34
2023-07-06T07:33:42.936Z,48.80
2023-07-06T07:36:13.250Z,49.60
2023-07-06T07:38:40.433Z,48.97
2023-07-06T07:41:09.234Z,48.85
2023-07-06T07:43:37.672Z,47.38
2023-07-06T07:46:06.607Z,46.73
2023-07-06T07:48:35.148Z,47.62
2023-07-06T07:51:04.250Z,46.89
2023-07-06T07:53:36.169Z,46.43
2023-07-06T07:56:06.830Z,45.77
2023-07-06T07:58:36.447Z,46.15
2023-07-06T08:01:05.559Z,46.03
2023-07-06T08:03:32.815Z,44.58
2023-07-06T08:06:04.223Z,43.89
2023-07-06T08:08:33.516Z,44.97
2023-07-06T08:11:06.902Z,44.61
2023-07-06T08:13:36.053Z,44.65
2023-07-06T08:16:03.656Z,44.30
2023-07-06T08:18:32.188Z,43.78
2023-07-06T08:21:21.177Z,43.51
2023-07-06T08:23:49.691Z,42.16
2023-07-06T08:26:16.669Z,40.90
2023-07-06T08:28:43.530Z,39.49
2023-07-06T08:31:21.004Z,40.10
2023-07-06T08:33:48.798Z,40.94
2023-07-06T08:36:17.226Z,38.73
2023-07-06T08:38:44.667Z,39.16
2023-07-06T08:41:31.020Z,38.57
2023-07-06T08:44:00.671Z,37.64
2023-07-06T08:46:35.506Z,37.52
2023-07-06T08:49:02.863Z,37.03
2023-07-06T08:51:32.812Z,36.87
2023-07-06T08:54:03.869Z,36.29
2023-07-06T08:56:37.580Z,35.33
2023-07-06T08:59:16.409Z,36.18
2023-07-06T09:01:43.610Z,35.42
2023-07-06T09:04:16.885Z,34.51
2023-07-06T09:06:49.953Z,33.28
2023-07-06T09:09:16.682Z,33.50
2023-07-06T09:11:44.857Z,32.79
2023-07-06T09:14:14.820Z,31.30
2023-07-06T09:16:50.238Z,31.35
2023-07-06T09:19:18.987Z,30.47
2023-07-06T09:21:48.579Z,26.75
2023-07-06T09:24:15.519Z,25.97
2023-07-06T09:26:44.739Z,23.61
2023-07-06T09:29:20.335Z,21.68
2023-07-06T09:31:48.331Z,18.50
2023-07-06T09:34:30.267Z,20.08
2023-07-06T09:36:57.287Z,18.40
2023-07-06T09:39:25.202Z,19.88
2023-07-06T09:41:53.446Z,17.56
2023-07-06T09:44:27.385Z,17.73
2023-07-06T09:46:56.910Z,19.11
2023-07-06T09:49:29.247Z,18.44
2023-07-06T09:52:25.718Z,16.05
2023-07-06T09:54:56.216Z,17.06
2023-07-06T09:57:26.060Z,18.22
2023-07-06T09:59:53.813Z,19.02
2023-07-06T10:02:32.978Z,18.61
2023-07-06T10:05:08.958Z,20.66
2023-07-06T10:07:59.162Z,23.92
2023-07-06T10:10:40.565Z,20.93
2023-07-06T10:13:23.772Z,21.78
2023-07-06T10:16:01.310Z,24.39
2023-07-06T10:18:55.567Z,20.83
2023-07-06T10:21:42.420Z,20.97
2023-07-06T10:24:26.754Z,21.41
2023-07-06T10:26:56.217Z,21.48
2023-07-06T10:29:35.192Z,20.50
2023-07-06T10:32:10.937Z,20.33
2023-07-06T10:35:02.359Z,27.07
2023-07-06T10:37:29.505Z,21.99
2023-07-06T10:40:02.296Z,18.76
2023-07-06T10:42:33.904Z,20.15
2023-07-06T10:45:03.408Z,18.62
2023-07-06T10:47:32.509Z,21.68
2023-07-06T10:50:07.417Z,23.12
2023-07-06T10:52:40.005Z,20.54
2023-07-06T10:55:17.041Z,23.46
2023-07-06T10:57:55.328Z,24.57
2023-07-06T11:00:34.971Z,24.44
2023-07-06T11:03:02.109Z,25.54
2023-07-06T11:05:31.252Z,24.67
2023-07-06T11:08:01.152Z,22.45
2023-07-06T11:10:38.907Z,22.08
2023-07-06T11:13:06.037Z,24.61
2023-07-06T11:15:42.224Z,21.78
2023-07-06T11:18:33.575Z,17.41
2023-07-06T11:21:28.353Z,16.71
2023-07-06T11:24:03.608Z,15.30
2023-07-06T11:26:43.754Z,15.07
2023-07-06T11:29:11.626Z,16.60
2023-07-06T11:32:00.632Z,22.15
2023-07-06T11:34:52.073Z,24.41
2023-07-06T11:37:49.525Z,21.78
2023-07-06T11:40:30.753Z,17.69
2023-07-06T11:43:18.737Z,16.30
2023-07-06T11:46:13.352Z,15.86
2023-07-06T11:48:58.785Z,18.85
2023-07-06T11:51:25.342Z,18.28
2023-07-06T11:53:55.921Z,16.50
2023-07-06T11:56:44.466Z,18.00
2023-07-06T11:59:27.301Z,21.25
2023-07-06T12:01:59.364Z,19.62
2023-07-06T12:04:27.562Z,20.77
2023-07-06T12:06:55.339Z,21.62
2023-07-06T12:09:25.000Z,21.83
2023-07-06T12:12:14.181Z,20.67
2023-07-06T12:14:40.831Z,18.91
2023-07-06T12:17:10.854Z,20.20
2023-07-06T12:19:39.104Z,21.76
2023-07-06T12:22:05.888Z,23.77
2023-07-06T12:24:34.250Z,23.19
2023-07-06T12:27:03.884Z,22.88
2023-07-06T12:29:32.830Z,25.45
2023-07-06T12:32:07.961Z,25.84
2023-07-06T12:34:35.859Z,26.97
2023-07-06T12:37:04.322Z,25.29
2023-07-06T12:39:38.131Z,26.46
2023-07-06T12:42:07.357Z,26.82
2023-07-06T12:44:34.400Z,28.85
2023-07-06T12:47:29.760Z,27.81
2023-07-06T12:50:01.612Z,27.17
2023-07-06T12:52:29.640Z,28.27
2023-07-06T12:54:57.561Z,27.34
2023-07-06T12:57:26.891Z,27.84
2023-07-06T12:59:58.738Z,29.20
2023-07-06T13:02:31.469Z,28.63
2023-07-06T13:04:58.729Z,29.55
2023-07-06T13:07:27.701Z,29.19
2023-07-06T13:09:55.910Z,28.13
2023-07-06T13:12:25.340Z,27.05
2023-07-06T13:14:53.265Z,28.45
2023-07-06T13:17:24.998Z,28.80
2023-07-06T13:19:54.023Z,29.80
2023-07-06T13:22:24.873Z,30.39
2023-07-06T13:24:51.663Z,29.78
2023-07-06T13:27:20.069Z,28.21
2023-07-06T13:29:49.401Z,28.88
2023-07-06T13:32:19.619Z,28.99
2023-07-06T13:34:47.922Z,29.00
2023-07-06T13:37:25.916Z,27.76
2023-07-06T13:39:52.982Z,27.79
2023-07-06T13:42:21.675Z,28.61
2023-07-06T13:44:50.426Z,30.58
2023-07-06T13:47:21.871Z,29.99
2023-07-06T13:49:53.607Z,28.57
2023-07-06T13:52:21.632Z,26.21
2023-07-06T13:54:48.777Z,25.54
2023-07-06T13:57:15.977Z,29.39
2023-07-06T13:59:42.799Z,29.67
2023-07-06T14:02:14.278Z,30.02
2023-07-06T14:04:42.871Z,29.93
2023-07-06T14:07:10.468Z,28.10
2023-07-06T14:09:37.093Z,28.31
2023-07-06T14:12:06.433Z,29.93
2023-07-06T14:14:33.110Z,30.51
2023-07-06T14:17:01.962Z,28.96
2023-07-06T14:19:28.642Z,26.96
2023-07-06T14:21:55.283Z,25.98
2023-07-06T14:24:22.870Z,27.48
2023-07-06T14:26:49.765Z,26.22
2023-07-06T14:29:17.204Z,25.79
2023-07-06T14:31:48.143Z,25.92
2023-07-06T14:34:16.609Z,25.44
2023-07-06T14:36:43.257Z,25.38
2023-07-06T14:39:09.758Z,25.62
2023-07-06T14:41:36.274Z,24.86
2023-07-06T14:44:02.883Z,25.64
2023-07-06T14:46:29.846Z,24.48
2023-07-06T14:48:59.400Z,27.37
2023-07-06T14:51:26.643Z,25.73
2023-07-06T14:53:53.476Z,27.46
2023-07-06T14:56:22.412Z,26.76
2023-07-06T14:58:50.014Z,27.40
2023-07-06T15:01:16.727Z,28.35
2023-07-06T15:03:43.638Z,27.58
2023-07-06T15:06:11.858Z,26.97
2023-07-06T15:08:38.786Z,27.17
2023-07-06T15:11:05.412Z,27.54
2023-07-06T15:13:32.086Z,26.64
2023-07-06T15:15:59.646Z,27.48
2023-07-06T15:18:26.907Z,27.15
2023-07-06T15:21:05.327Z,27.63
2023-07-06T15:23:31.902Z,28.94
2023-07-06T15:25:58.799Z,28.13
2023-07-06T15:28:25.584Z,26.97
2023-07-06T15:30:52.348Z,27.69
2023-07-06T15:33:19.019Z,27.73
2023-07-06T15:35:46.102Z,28.04
2023-07-06T15:38:13.121Z,28.86
2023-07-06T15:40:41.905Z,28.68
2023-07-06T15:43:08.494Z,27.57
2023-07-06T15:45:35.069Z,27.51
2023-07-06T15:48:01.858Z,27.56
2023-07-06T15:50:28.579Z,27.02
2023-07-06T15:52:55.212Z,28.09
2023-07-06T15:55:21.972Z,28.38
2023-07-06T15:57:48.497Z,27.15
2023-07-06T16:00:15.929Z,27.96
2023-07-06T16:02:42.922Z,27.87
2023-07-06T16:05:10.023Z,27.52
2023-07-06T16:07:36.702Z,28.73
2023-07-06T16:10:03.688Z,27.32
2023-07-06T16:12:30.245Z,27.83
2023-07-06T16:14:56.812Z,27.17
2023-07-06T16:17:23.603Z,27.14
2023-07-06T16:19:50.161Z,28.90
2023-07-06T16:22:16.673Z,28.62
2023-07-06T16:24:43.225Z,28.01
2023-07-06T16:27:09.819Z,27.86
2023-07-06T16:29:38.019Z,27.64
2023-07-06T16:32:07.582Z,28.14
2023-07-06T16:34:34.200Z,28.21
2023-07-06T16:37:00.801Z,28.48
2023-07-06T16:39:27.387Z,28.18
2023-07-06T16:41:53.925Z,29.01
2023-07-06T16:44:22.680Z,29.38
2023-07-06T16:46:50.341Z,27.98
2023-07-06T16:49:17.272Z,28.44
2023-07-06T16:51:43.805Z,26.90
2023-07-06T16:54:10.421Z,27.40
2023-07-06T16:56:38.379Z,27.33
2023-07-06T16:59:05.721Z,28.30
2023-07-06T17:01:35.026Z,27.95
2023-07-06T17:04:02.894Z,28.36
2023-07-06T17:06:29.862Z,28.20
2023-07-06T17:08:56.966Z,29.19
2023-07-06T17:11:23.865Z,28.55
2023-07-06T17:13:50.616Z,28.25
2023-07-06T17:16:18.348Z,28.06
2023-07-06T17:18:45.132Z,28.08
2023-07-06T17:21:12.712Z,28.84
2023-07-06T17:23:39.220Z,29.29
2023-07-06T17:26:05.864Z,28.29
2023-07-06T17:28:33.781Z,28.10
2023-07-06T17:31:07.325Z,26.57
2023-07-06T17:33:34.241Z,27.25
2023-07-06T17:36:02.880Z,27.94
2023-07-06T17:38:29.585Z,28.82
2023-07-06T17:41:01.352Z,28.35
2023-07-06T17:43:28.367Z,29.48
2023-07-06T17:45:55.268Z,29.93
2023-07-06T17:48:24.204Z,29.79
2023-07-06T17:50:51.232Z,30.17
2023-07-06T17:53:19.488Z,31.14
2023-07-06T17:55:47.274Z,31.16
2023-07-06T17:58:16.085Z,31.51
2023-07-06T18:00:42.689Z,31.97
2023-07-06T18:03:09.520Z,32.27
2023-07-06T18:05:36.096Z,32.60
2023-07-06T18:08:04.205Z,33.18
2023-07-06T18:10:31.493Z,33.32
2023-07-06T18:12:58.096Z,33.48
2023-07-06T18:15:24.668Z,34.18
2023-07-06T18:17:51.376Z,34.25
2023-07-06T18:20:18.299Z,34.34
2023-07-06T18:22:45.639Z,34.61
2023-07-06T18:25:12.353Z,34.57
2023-07-06T18:27:42.313Z,35.05
2023-07-06T18:30:09.162Z,35.40
2023-07-06T18:32:36.107Z,35.28
2023-07-06T18:35:02.896Z,36.27
2023-07-06T18:37:29.584Z,36.43
2023-07-06T18:39:56.457Z,36.74
2023-07-06T18:42:23.068Z,37.05
2023-07-06T18:45:28.643Z,36.93
2023-07-06T18:48:05.112Z,37.38
2023-07-06T18:50:32.012Z,36.36
2023-07-06T18:52:59.607Z,36.54
2023-07-06T18:55:26.206Z,36.38
2023-07-06T18:57:54.218Z,37.74
2023-07-06T19:00:22.058Z,37.64
2023-07-06T19:02:49.680Z,37.34
2023-07-06T19:05:16.904Z,36.41
2023-07-06T19:07:55.960Z,36.55
2023-07-06T19:10:27.277Z,37.29
2023-07-06T19:12:54.488Z,37.24
2023-07-06T19:15:21.627Z,36.44
2023-07-06T19:17:48.293Z,35.90
2023-07-06T19:20:15.623Z,36.25
2023-07-06T19:22:52.834Z,35.92
2023-07-06T19:25:20.883Z,36.25
2023-07-06T19:27:48.780Z,36.50
2023-07-06T19:30:15.917Z,36.45
2023-07-06T19:32:43.065Z,36.66
2023-07-06T19:35:10.006Z,37.89
2023-07-06T19:37:36.764Z,38.26
2023-07-06T19:40:08.062Z,38.56
2023-07-06T19:42:35.316Z,37.96
2023-07-06T19:45:01.963Z,38.22
2023-07-06T19:47:28.724Z,38.03
2023-07-06T19:49:55.421Z,38.06
2023-07-06T19:52:21.994Z,37.92
2023-07-06T19:54:48.553Z,37.71
2023-07-06T19:57:19.621Z,38.02
2023-07-06T19:59:48.699Z,38.12
2023-07-06T20:02:15.468Z,39.17
2023-07-06T20:04:46.763Z,40.05
2023-07-06T20:07:15.380Z,40.35
2023-07-06T20:09:44.343Z,40.46
2023-07-06T20:12:11.366Z,40.16
2023-07-06T20:14:39.268Z,40.51
2023-07-06T20:17:06.233Z,40.96
2023-07-06T20:19:33.337Z,40.88
2023-07-06T20:22:00.624Z,40.92
2023-07-06T20:24:27.269Z,40.91
2023-07-06T20:26:54.096Z,40.60
2023-07-06T20:29:24.702Z,41.20
2023-07-06T20:31:51.438Z,41.37
2023-07-06T20:34:18.674Z,41.65
2023-07-06T20:36:45.481Z,41.62
2023-07-06T20:39:12.463Z,41.99
2023-07-06T20:41:39.257Z,42.16
2023-07-06T20:44:06.023Z,42.09
2023-07-06T20:46:32.656Z,42.63
2023-07-06T20:48:59.572Z,42.29
2023-07-06T20:51:26.438Z,41.91
2023-07-06T20:53:53.112Z,41.80
2023-07-06T20:56:19.849Z,42.24
2023-07-06T20:58:46.531Z,42.12
2023-07-06T21:01:13.275Z,42.24
2023-07-06T21:03:42.035Z,42.52
2023-07-06T21:06:08.670Z,43.64
2023-07-06T21:08:36.374Z,42.86
2023-07-06T21:11:04.461Z,42.76
2023-07-06T21:13:32.515Z,43.43
2023-07-06T21:16:04.459Z,44.15
2023-07-06T21:18:34.383Z,43.92
2023-07-06T21:21:04.070Z,43.92
2023-07-06T21:23:30.952Z,44.50
2023-07-06T21:25:57.534Z,44.62
2023-07-06T21:28:26.150Z,44.42
2023-07-06T21:30:55.134Z,44.47
2023-07-06T21:33:22.134Z,45.96
2023-07-06T21:35:48.800Z,45.64
2023-07-06T21:38:15.389Z,45.56
2023-07-06T21:40:51.696Z,45.76
2023-07-06T21:43:18.355Z,45.60
2023-07-06T21:45:45.013Z,46.25
2023-07-06T21:48:11.572Z,46.82
2023-07-06T21:50:38.151Z,46.83
2023-07-06T21:53:04.816Z,46.17
2023-07-06T21:55:32.586Z,46.83
2023-07-06T21:57:59.735Z,47.71
2023-07-06T22:00:26.317Z,47.69
2023-07-06T22:02:53.060Z,47.13
2023-07-06T22:05:19.862Z,47.20
2023-07-06T22:07:46.604Z,47.65
2023-07-06T22:10:14.484Z,47.57
2023-07-06T22:12:41.820Z,47.57
2023-07-06T22:15:12.044Z,47.66
2023-07-06T22:17:43.382Z,47.93
2023-07-06T22:20:10.306Z,47.84
2023-07-06T22:22:36.953Z,48.31
2023-07-06T22:25:04.367Z,48.32
2023-07-06T22:27:31.283Z,48.07
2023-07-06T22:29:58.012Z,48.03
2023-07-06T22:32:24.869Z,47.79
2023-07-06T22:34:51.436Z,47.69
2023-07-06T22:37:18.209Z,47.23
2023-07-06T22:39:44.993Z,47.58
2023-07-06T22:42:11.610Z,48.21
2023-07-06T22:44:39.602Z,48.97
2023-07-06T22:47:06.732Z,48.47
2023-07-06T22:49:35.365Z,48.88
2023-07-06T22:52:02.298Z,48.60
2023-07-06T22:54:29.053Z,48.98
2023-07-06T22:56:55.697Z,48.64
2023-07-06T22:59:22.470Z,48.39
2023-07-06T23:01:49.349Z,49.38
2023-07-06T23:04:16.110Z,50.01
2023-07-06T23:06:45.901Z,49.84
2023-07-06T23:09:12.694Z,50.07
2023-07-06T23:11:39.705Z,50.28
2023-07-06T23:14:10.558Z,51.71
2023-07-06T23:16:38.087Z,51.60
2023-07-06T23:19:04.743Z,51.56
2023-07-06T23:21:35.907Z,51.30
2023-07-06T23:24:03.026Z,51.42
2023-07-06T23:26:29.891Z,51.55
2023-07-06T23:28:57.762Z,51.36
2023-07-06T23:31:38.686Z,51.51
2023-07-06T23:34:07.562Z,51.46
2023-07-06T23:36:34.480Z,51.29
2023-07-06T23:39:03.728Z,51.39
2023-07-06T23:41:30.908Z,51.70
2023-07-06T23:43:57.690Z,51.47
2023-07-06T23:46:24.425Z,51.96
2023-07-06T23:48:52.712Z,51.52
2023-07-06T23:51:22.677Z,51.63
2023-07-06T23:53:49.268Z,52.65
2023-07-06T23:56:16.083Z,51.81
2023-07-06T23:58:42.717Z,51.68
